Time;durP1;ratioP1;P1;durP2;ratioP2;P2;SDS_P1;SDS_P2;PMS_P1;PMS_P2;Temp;Humidity;BMP_temperature;BMP_pressure;BME280_temperature;BME280_humidity;BME280_pressure;Samples;Min_cycle;Max_cycle;Signal;HPM_P1;HPM_P2
2023/03/27 00:00:57;;;;;;;9.20;1.83;;;9.80;99.90;;;;;;4995565;28;20488;-86
2023/03/27 00:03:25;;;;;;;10.23;2.40;;;9.90;99.90;;;;;;4995661;28;20480;-86
2023/03/27 00:06:05;;;;;;;5.07;1.83;;;9.90;99.90;;;;;;4995939;28;20539;-85
2023/03/27 00:08:35;;;;;;;4.07;2.40;;;9.80;99.90;;;;;;4995352;28;20469;-87
2023/03/27 00:11:02;;;;;;;3.53;2.00;;;9.80;99.90;;;;;;4995417;28;20439;-87
2023/03/27 00:13:30;;;;;;;11.30;2.33;;;9.80;99.90;;;;;;4996270;28;20402;-86
2023/03/27 00:16:01;;;;;;;6.83;1.80;;;9.80;99.90;;;;;;5011713;28;20452;-86
2023/03/27 00:18:28;;;;;;;8.90;2.97;;;9.80;99.90;;;;;;5011912;28;20515;-86
2023/03/27 00:20:59;;;;;;;5.23;1.90;;;9.80;99.90;;;;;;5011387;28;20433;-86
2023/03/27 00:23:30;;;;;;;8.27;2.57;;;9.80;99.90;;;;;;4996135;28;20484;-86
2023/03/27 00:25:56;;;;;;;8.27;2.33;;;9.80;99.90;;;;;;4979147;28;20429;-86
2023/03/27 00:28:26;;;;;;;9.37;2.67;;;9.80;99.90;;;;;;4978620;28;20461;-87
2023/03/27 00:30:54;;;;;;;7.57;2.20;;;9.70;99.90;;;;;;4984190;28;20518;-86
2023/03/27 00:33:24;;;;;;;6.50;2.23;;;9.70;99.90;;;;;;5000789;28;20425;-86
2023/03/27 00:35:53;;;;;;;6.73;1.90;;;9.70;99.90;;;;;;4995099;28;20444;-86
2023/03/27 00:38:23;;;;;;;8.10;1.90;;;9.70;99.90;;;;;;4991658;28;20434;-86
2023/03/27 00:40:53;;;;;;;4.70;2.13;;;9.70;99.90;;;;;;5004769;28;20473;-86
2023/03/27 00:43:29;;;;;;;6.10;2.10;;;9.70;99.90;;;;;;4995746;28;20486;-87
2023/03/27 00:46:15;;;;;;;5.33;1.77;;;9.70;99.90;;;;;;4994741;28;20413;-86
2023/03/27 00:48:45;;;;;;;7.00;3.73;;;9.70;99.90;;;;;;4995568;28;20476;-86
2023/03/27 00:51:17;;;;;;;5.40;1.67;;;9.70;99.90;;;;;;4978807;28;20472;-85
2023/03/27 00:53:46;;;;;;;7.93;2.13;;;9.60;99.90;;;;;;5008186;28;20468;-87
2023/03/27 00:56:14;;;;;;;5.90;2.17;;;9.60;99.90;;;;;;4996060;28;20429;-86
2023/03/27 00:58:47;;;;;;;6.17;2.30;;;9.60;99.90;;;;;;5011045;28;20503;-87
2023/03/27 01:01:15;;;;;;;5.17;2.23;;;9.60;99.90;;;;;;4995690;28;20441;-86
2023/03/27 01:03:47;;;;;;;6.20;2.40;;;9.60;99.90;;;;;;4994587;28;20457;-86
2023/03/27 01:06:19;;;;;;;6.13;1.90;;;9.60;99.90;;;;;;4975602;28;20512;-84
2023/03/27 01:08:46;;;;;;;4.33;1.80;;;9.60;99.90;;;;;;4991366;28;20501;-86
2023/03/27 01:11:15;;;;;;;4.67;2.40;;;9.60;99.90;;;;;;5003322;28;20739;-87
2023/03/27 01:14:02;;;;;;;5.13;2.20;;;9.60;99.90;;;;;;4994189;28;20488;-85
2023/03/27 01:16:50;;;;;;;5.50;1.80;;;9.50;99.90;;;;;;4975211;28;20521;-86
2023/03/27 01:19:37;;;;;;;10.97;2.13;;;9.50;99.90;;;;;;4994412;28;20898;-87
2023/03/27 01:22:13;;;;;;;6.20;2.10;;;9.50;99.90;;;;;;4994247;28;20460;-86
2023/03/27 01:24:59;;;;;;;3.27;1.77;;;9.50;99.90;;;;;;4975625;28;20395;-86
2023/03/27 01:27:44;;;;;;;5.27;1.67;;;9.50;99.90;;;;;;4993949;28;20527;-87
2023/03/27 01:30:31;;;;;;;6.37;1.90;;;9.50;99.90;;;;;;4990844;28;20478;-86
2023/03/27 01:33:25;;;;;;;5.37;1.93;;;9.50;99.90;;;;;;5013237;28;20432;-87
2023/03/27 01:35:53;;;;;;;5.43;1.97;;;9.40;99.90;;;;;;5014818;28;20460;-86
2023/03/27 01:38:22;;;;;;;7.43;2.07;;;9.40;99.90;;;;;;4998586;28;20528;-86
2023/03/27 01:41:17;;;;;;;6.60;2.20;;;9.40;99.90;;;;;;4997768;28;20463;-85
2023/03/27 01:43:46;;;;;;;3.93;1.77;;;9.40;99.90;;;;;;4998408;28;20425;-87
2023/03/27 01:46:23;;;;;;;6.70;2.13;;;9.40;99.90;;;;;;4981842;28;20964;-87
2023/03/27 01:48:59;;;;;;;12.07;2.40;;;9.40;99.90;;;;;;4998672;28;20832;-87
2023/03/27 01:51:42;;;;;;;5.40;2.30;;;9.40;99.90;;;;;;4998042;28;20822;-85
2023/03/27 01:54:33;;;;;;;5.73;1.80;;;9.40;99.90;;;;;;4981841;28;20441;-86
2023/03/27 01:57:15;;;;;;;7.53;2.30;;;9.40;99.90;;;;;;4998555;28;20437;-87
2023/03/27 01:59:45;;;;;;;4.20;1.87;;;9.40;99.90;;;;;;4997849;28;20492;-86
2023/03/27 02:02:17;;;;;;;4.50;3.10;;;9.30;99.90;;;;;;4997685;28;20433;-87
2023/03/27 02:04:51;;;;;;;5.90;1.87;;;9.30;99.90;;;;;;4997914;28;20617;-87
2023/03/27 02:07:25;;;;;;;4.37;2.20;;;9.30;99.90;;;;;;4997796;28;20446;-88
2023/03/27 02:09:55;;;;;;;7.40;1.90;;;9.30;99.90;;;;;;4997500;28;20539;-85
2023/03/27 02:12:38;;;;;;;7.77;2.27;;;9.30;99.90;;;;;;4997680;28;20447;-86
2023/03/27 02:15:22;;;;;;;9.53;2.53;;;9.30;99.90;;;;;;4981374;28;20444;-86
2023/03/27 02:18:03;;;;;;;5.97;2.07;;;9.30;99.90;;;;;;4997869;28;20401;-86
2023/03/27 02:20:36;;;;;;;5.13;2.07;;;9.20;99.90;;;;;;4981361;28;20456;-86
2023/03/27 02:23:07;;;;;;;8.70;1.93;;;9.30;99.90;;;;;;4997616;28;20437;-87
2023/03/27 02:25:38;;;;;;;9.87;2.40;;;9.20;99.90;;;;;;4988481;28;20436;-85
2023/03/27 02:28:16;;;;;;;6.30;2.00;;;9.20;99.90;;;;;;4997376;28;20899;-87
2023/03/27 02:31:04;;;;;;;4.03;2.30;;;9.20;99.90;;;;;;4993527;28;20811;-86
2023/03/27 02:33:43;;;;;;;6.90;2.20;;;9.20;99.90;;;;;;5006001;28;20818;-87
2023/03/27 02:36:31;;;;;;;5.30;1.87;;;9.20;99.90;;;;;;4997631;28;20919;-88
2023/03/27 02:39:07;;;;;;;6.70;2.20;;;9.20;99.90;;;;;;5013224;28;20441;-86
2023/03/27 02:41:50;;;;;;;5.87;2.80;;;9.20;99.90;;;;;;4993321;28;20445;-87
2023/03/27 02:44:55;;;;;;;7.27;2.17;;;9.20;99.90;;;;;;4993073;28;20407;-87
2023/03/27 02:47:34;;;;;;;9.10;2.10;;;9.20;99.90;;;;;;4997613;28;20457;-87
2023/03/27 02:50:08;;;;;;;4.90;2.10;;;9.10;99.90;;;;;;4998154;28;20774;-86
2023/03/27 02:52:49;;;;;;;8.67;2.30;;;9.10;99.90;;;;;;5010924;28;20421;-87
2023/03/27 02:55:22;;;;;;;7.37;2.50;;;9.10;99.90;;;;;;4980586;28;20444;-85
2023/03/27 02:57:58;;;;;;;5.93;2.43;;;9.10;99.90;;;;;;4997039;28;20479;-87
2023/03/27 03:00:49;;;;;;;7.50;2.10;;;9.10;99.90;;;;;;4997603;28;20433;-87
2023/03/27 03:03:47;;;;;;;7.90;2.60;;;9.10;99.90;;;;;;5009929;28;20492;-87
2023/03/27 03:06:32;;;;;;;9.27;2.67;;;9.00;99.90;;;;;;4996741;28;20744;-86
2023/03/27 03:09:05;;;;;;;6.57;2.70;;;9.10;99.90;;;;;;4996532;28;20476;-86
2023/03/27 03:11:38;;;;;;;9.00;2.30;;;9.00;99.90;;;;;;4993728;28;20437;-87
2023/03/27 03:14:06;;;;;;;12.57;3.00;;;9.00;99.90;;;;;;5009538;28;20783;-87
2023/03/27 03:16:32;;;;;;;8.97;2.80;;;9.00;99.90;;;;;;4979145;28;20434;-85
2023/03/27 03:18:58;;;;;;;4.03;2.60;;;9.00;99.90;;;;;;4988447;28;20438;-87
2023/03/27 03:21:26;;;;;;;7.77;2.80;;;9.00;99.90;;;;;;4996524;28;20457;-87
2023/03/27 03:23:53;;;;;;;6.90;2.60;;;9.00;99.90;;;;;;4979911;28;20472;-87
2023/03/27 03:26:23;;;;;;;3.80;2.80;;;9.00;99.90;;;;;;4992632;28;20983;-87
2023/03/27 03:28:51;;;;;;;4.70;2.40;;;9.00;99.90;;;;;;4993131;28;20476;-87
2023/03/27 03:31:17;;;;;;;7.17;2.30;;;9.00;99.90;;;;;;4996675;28;20421;-87
2023/03/27 03:33:48;;;;;;;6.03;2.33;;;9.00;99.90;;;;;;4992454;28;20442;-86
2023/03/27 03:36:18;;;;;;;3.43;2.10;;;8.90;99.90;;;;;;5006372;28;20471;-87
2023/03/27 03:38:44;;;;;;;4.67;2.27;;;8.90;99.90;;;;;;4992314;28;20759;-86
2023/03/27 03:41:13;;;;;;;6.50;2.40;;;8.90;99.90;;;;;;4992872;28;20452;-87
2023/03/27 03:43:42;;;;;;;7.13;2.40;;;8.90;99.90;;;;;;4998691;28;20555;-88
2023/03/27 03:46:08;;;;;;;6.47;2.47;;;8.90;99.90;;;;;;4996345;28;20778;-87
2023/03/27 03:48:34;;;;;;;5.33;2.43;;;8.90;99.90;;;;;;4996723;28;20552;-85
2023/03/27 03:51:02;;;;;;;7.37;2.30;;;8.90;99.90;;;;;;5011928;28;20212;-86
2023/03/27 03:53:30;;;;;;;8.00;2.40;;;8.90;99.90;;;;;;4995892;28;20421;-87
2023/03/27 03:55:59;;;;;;;7.83;2.50;;;8.80;99.90;;;;;;4976341;28;20549;-87
2023/03/27 03:58:25;;;;;;;8.70;2.77;;;8.80;99.90;;;;;;4989817;28;20536;-85
2023/03/27 04:00:54;;;;;;;6.83;2.17;;;8.80;99.90;;;;;;4995570;28;20768;-86
2023/03/27 04:03:35;;;;;;;5.40;2.27;;;8.80;99.90;;;;;;5011749;28;20477;-87
2023/03/27 04:06:04;;;;;;;8.93;2.70;;;8.80;99.90;;;;;;5012028;28;20520;-87
2023/03/27 04:08:33;;;;;;;6.43;2.43;;;8.80;99.90;;;;;;4995257;28;20500;-87
2023/03/27 04:11:03;;;;;;;8.73;2.83;;;8.80;99.90;;;;;;4996500;28;20833;-85
2023/03/27 04:13:55;;;;;;;9.17;2.10;;;8.80;99.90;;;;;;4988083;28;20454;-87
2023/03/27 04:16:30;;;;;;;3.70;2.23;;;8.80;99.90;;;;;;5000271;28;20965;-86
2023/03/27 04:19:02;;;;;;;4.43;2.17;;;8.70;99.90;;;;;;4995301;28;20540;-85
2023/03/27 04:21:33;;;;;;;5.20;2.10;;;8.70;99.90;;;;;;4994891;28;20440;-86
2023/03/27 04:24:01;;;;;;;7.20;2.40;;;8.70;99.90;;;;;;4995188;28;20524;-87
2023/03/27 04:26:35;;;;;;;4.57;2.23;;;8.70;99.90;;;;;;4995973;28;20471;-86
2023/03/27 04:29:21;;;;;;;8.93;2.27;;;8.70;99.90;;;;;;4995111;28;20449;-87
2023/03/27 04:31:59;;;;;;;4.57;2.10;;;8.70;99.90;;;;;;4995893;28;20479;-85
2023/03/27 04:34:47;;;;;;;3.77;2.23;;;8.70;99.90;;;;;;4997090;28;20486;-85
2023/03/27 04:37:46;;;;;;;6.20;2.20;;;8.60;99.90;;;;;;4991577;28;20466;-86
2023/03/27 04:40:25;;;;;;;6.10;2.27;;;8.60;99.90;;;;;;4999475;28;20433;-86
2023/03/27 04:42:54;;;;;;;4.10;2.00;;;8.60;99.90;;;;;;4978486;28;20468;-87
2023/03/27 04:45:27;;;;;;;3.57;2.00;;;8.60;99.90;;;;;;4994710;28;20413;-87
2023/03/27 04:47:57;;;;;;;5.10;2.40;;;8.60;99.90;;;;;;4994356;28;20484;-86
2023/03/27 04:50:25;;;;;;;6.10;2.67;;;8.60;99.90;;;;;;4994467;28;20468;-86
2023/03/27 04:52:57;;;;;;;6.63;2.40;;;8.60;99.90;;;;;;4978429;28;20517;-88
2023/03/27 04:55:36;;;;;;;4.07;2.03;;;8.60;99.90;;;;;;4994556;28;20474;-87
2023/03/27 04:58:06;;;;;;;6.10;2.17;;;8.50;99.90;;;;;;4978704;28;20433;-86
2023/03/27 05:00:37;;;;;;;4.80;2.20;;;8.50;99.90;;;;;;4991263;28;20818;-86
2023/03/27 05:03:26;;;;;;;5.60;2.30;;;8.50;99.90;;;;;;4991686;28;20445;-86
2023/03/27 05:06:09;;;;;;;4.97;2.33;;;8.50;99.90;;;;;;4978219;28;20472;-86
2023/03/27 05:08:41;;;;;;;8.03;3.43;;;8.50;99.90;;;;;;5009963;28;20453;-87
2023/03/27 05:11:17;;;;;;;5.87;2.33;;;8.50;99.90;;;;;;5010710;28;20398;-88
2023/03/27 05:13:48;;;;;;;5.37;2.53;;;8.50;99.90;;;;;;4991217;28;20469;-86
2023/03/27 05:16:17;;;;;;;4.30;2.50;;;8.50;99.90;;;;;;4993805;28;20441;-87
2023/03/27 05:18:45;;;;;;;5.90;2.70;;;8.50;99.90;;;;;;4994408;28;20467;-86
2023/03/27 05:21:14;;;;;;;6.73;2.33;;;8.40;99.90;;;;;;4994765;28;20877;-86
2023/03/27 05:23:42;;;;;;;6.60;2.90;;;8.40;99.90;;;;;;4994028;28;20451;-85
2023/03/27 05:26:09;;;;;;;4.80;2.50;;;8.40;99.90;;;;;;4993766;28;20448;-87
2023/03/27 05:28:58;;;;;;;5.30;2.70;;;8.40;99.90;;;;;;4994030;28;20484;-87
2023/03/27 05:31:27;;;;;;;5.57;2.50;;;8.40;99.90;;;;;;4974842;28;20414;-85
2023/03/27 05:34:13;;;;;;;6.63;3.00;;;8.40;99.90;;;;;;4994179;28;20838;-87
2023/03/27 05:36:40;;;;;;;7.67;3.00;;;8.40;99.90;;;;;;4994034;28;20477;-86
2023/03/27 05:39:06;;;;;;;4.80;3.17;;;8.40;99.90;;;;;;4994422;28;20421;-86
2023/03/27 05:41:39;;;;;;;6.37;2.50;;;8.40;99.90;;;;;;4994030;28;20516;-87
2023/03/27 05:44:08;;;;;;;3.60;2.77;;;8.40;99.90;;;;;;4995042;28;20428;-87
2023/03/27 05:46:38;;;;;;;6.53;2.40;;;8.40;99.90;;;;;;4993947;28;20497;-86
2023/03/27 05:49:14;;;;;;;5.03;2.33;;;8.30;99.90;;;;;;4995371;28;20498;-86
2023/03/27 05:51:41;;;;;;;8.37;2.43;;;8.30;99.90;;;;;;4979602;28;20452;-91
2023/03/27 05:54:09;;;;;;;4.03;2.50;;;8.30;99.90;;;;;;4994868;28;20531;-88
2023/03/27 05:56:49;;;;;;;10.13;2.53;;;8.30;99.90;;;;;;4978964;28;20432;-84
2023/03/27 05:59:16;;;;;;;6.67;2.93;;;8.30;99.90;;;;;;4997741;28;20436;-85
2023/03/27 06:01:44;;;;;;;5.93;2.70;;;8.30;99.90;;;;;;4991007;28;20514;-86
2023/03/27 06:04:14;;;;;;;3.10;2.50;;;8.30;99.90;;;;;;5001772;28;20773;-84
2023/03/27 06:07:06;;;;;;;6.53;3.53;;;8.30;99.90;;;;;;5009235;28;20472;-84
2023/03/27 06:09:38;;;;;;;8.97;3.73;;;8.30;99.90;;;;;;4993893;28;20433;-84
2023/03/27 06:12:25;;;;;;;9.13;3.20;;;8.30;99.90;;;;;;4994044;28;20467;-85
2023/03/27 06:14:59;;;;;;;11.53;4.90;;;8.30;99.90;;;;;;4993363;28;20791;-84
2023/03/27 06:17:41;;;;;;;12.37;5.87;;;8.20;99.90;;;;;;4995445;28;20468;-84
2023/03/27 06:20:11;;;;;;;11.27;4.67;;;8.20;99.90;;;;;;4998017;28;20433;-90
2023/03/27 06:22:45;;;;;;;9.70;4.70;;;8.20;99.90;;;;;;4998049;28;20452;-88
2023/03/27 06:25:13;;;;;;;13.60;5.90;;;8.20;99.90;;;;;;5004631;28;20481;-87
2023/03/27 06:27:54;;;;;;;18.23;6.70;;;8.20;99.90;;;;;;5012162;28;20475;-87
2023/03/27 06:30:43;;;;;;;18.23;7.80;;;8.20;99.90;;;;;;4975319;28;20457;-88
2023/03/27 06:33:34;;;;;;;18.07;7.30;;;8.20;99.90;;;;;;4978285;28;20860;-88
2023/03/27 06:36:08;;;;;;;18.70;8.30;;;8.20;99.90;;;;;;4994461;28;20440;-85
2023/03/27 06:38:36;;;;;;;16.03;7.87;;;8.20;99.90;;;;;;4978057;28;20460;-87
2023/03/27 06:41:06;;;;;;;20.27;7.23;;;8.20;99.90;;;;;;4994156;28;20433;-90
2023/03/27 06:43:53;;;;;;;13.30;6.40;;;8.20;99.90;;;;;;4990951;28;20445;-88
2023/03/27 06:46:41;;;;;;;15.83;5.83;;;8.20;99.90;;;;;;4981165;28;20500;-88
2023/03/27 06:49:20;;;;;;;15.67;7.23;;;8.20;99.90;;;;;;5013267;28;20440;-87
2023/03/27 06:51:48;;;;;;;13.80;6.80;;;8.20;99.90;;;;;;4996526;28;20468;-88
2023/03/27 06:54:19;;;;;;;12.53;5.30;;;8.10;99.90;;;;;;4997565;28;20403;-89
2023/03/27 06:56:49;;;;;;;16.77;5.80;;;8.20;99.90;;;;;;4981339;28;20449;-91
2023/03/27 06:59:20;;;;;;;15.20;5.57;;;8.20;99.90;;;;;;5013308;28;20505;-88
2023/03/27 07:01:51;;;;;;;11.33;5.17;;;8.20;99.90;;;;;;4981305;28;20440;-88
2023/03/27 07:04:38;;;;;;;15.43;5.33;;;8.20;99.90;;;;;;4997885;28;20448;-88
2023/03/27 07:07:19;;;;;;;13.03;5.23;;;8.20;99.90;;;;;;4997882;28;20754;-92
2023/03/27 07:09:45;;;;;;;11.67;4.63;;;8.20;99.90;;;;;;4991127;28;20457;-85
2023/03/27 07:12:19;;;;;;;15.10;5.47;;;8.20;99.90;;;;;;4977563;28;20468;-88
2023/03/27 07:14:46;;;;;;;14.30;4.90;;;8.20;99.90;;;;;;4985996;28;20444;-87
2023/03/27 07:17:12;;;;;;;11.10;4.77;;;8.20;99.90;;;;;;4996955;28;20457;-92
2023/03/27 07:20:06;;;;;;;13.20;4.97;;;8.20;99.90;;;;;;4995192;28;20441;-91
2023/03/27 07:22:32;;;;;;;8.80;3.93;;;8.20;99.90;;;;;;5013430;28;20499;-89
2023/03/27 07:25:04;;;;;;;10.63;3.90;;;8.20;99.90;;;;;;4980754;28;21012;-89
2023/03/27 07:27:36;;;;;;;8.33;4.33;;;8.20;99.90;;;;;;5013746;28;20452;-90
2023/03/27 07:30:10;;;;;;;11.97;4.60;;;8.20;99.90;;;;;;4996403;28;20755;-89
2023/03/27 07:32:41;;;;;;;9.10;4.13;;;8.20;99.90;;;;;;4982462;28;20463;-88
2023/03/27 07:35:18;;;;;;;11.40;4.13;;;8.20;99.90;;;;;;4981135;28;20429;-90
2023/03/27 07:38:03;;;;;;;8.80;3.70;;;8.20;99.90;;;;;;4997365;28;20886;-91
2023/03/27 07:40:35;;;;;;;9.20;3.70;;;8.20;99.90;;;;;;4998136;28;20428;-87
2023/03/27 07:43:26;;;;;;;7.87;3.50;;;8.20;99.90;;;;;;4996424;28;20436;-89
2023/03/27 07:45:56;;;;;;;11.07;3.73;;;8.20;99.90;;;;;;4980433;28;20444;-90
2023/03/27 07:48:26;;;;;;;7.63;3.17;;;8.20;99.90;;;;;;4980585;28;20562;-89
2023/03/27 07:50:59;;;;;;;7.60;3.50;;;8.20;99.90;;;;;;4996906;28;20846;-90
2023/03/27 07:53:27;;;;;;;5.10;2.83;;;8.20;99.90;;;;;;4980637;28;20457;-89
2023/03/27 07:55:57;;;;;;;11.07;3.63;;;8.20;99.90;;;;;;4996281;28;20455;-91
2023/03/27 07:58:24;;;;;;;6.47;3.93;;;8.20;99.90;;;;;;4980696;28;20436;-90
2023/03/27 08:00:52;;;;;;;6.20;3.27;;;8.20;99.90;;;;;;4996091;28;20444;-90
2023/03/27 08:03:19;;;;;;;7.30;3.90;;;8.20;99.90;;;;;;4996206;28;20772;-89
2023/03/27 08:06:00;;;;;;;7.03;3.87;;;8.20;99.90;;;;;;4979833;28;20503;-88
2023/03/27 08:08:30;;;;;;;5.50;3.40;;;8.20;99.90;;;;;;4990167;28;20453;-90
2023/03/27 08:11:02;;;;;;;7.30;3.20;;;8.20;99.90;;;;;;4995783;28;20476;-89
2023/03/27 08:13:32;;;;;;;5.77;3.50;;;8.20;99.90;;;;;;4995971;28;20424;-89
2023/03/27 08:16:13;;;;;;;7.30;3.00;;;8.20;99.90;;;;;;4977651;28;20556;-87
2023/03/27 08:18:41;;;;;;;6.40;2.77;;;8.20;99.90;;;;;;4992507;28;20732;-88
2023/03/27 08:21:11;;;;;;;6.60;2.97;;;8.20;99.90;;;;;;4992539;28;20448;-88
2023/03/27 08:23:39;;;;;;;7.83;3.70;;;8.20;99.90;;;;;;4991158;28;20813;-88
2023/03/27 08:26:28;;;;;;;7.67;2.83;;;8.30;99.90;;;;;;5001353;28;20428;-89
2023/03/27 08:29:03;;;;;;;8.83;3.23;;;8.30;99.90;;;;;;4979227;28;21158;-88
2023/03/27 08:31:30;;;;;;;5.27;3.20;;;8.30;99.90;;;;;;4979516;28;20431;-90
2023/03/27 08:34:02;;;;;;;6.00;3.03;;;8.30;99.90;;;;;;4995920;28;20455;-88
2023/03/27 08:36:44;;;;;;;5.50;2.60;;;8.30;99.90;;;;;;5011584;28;20440;-89
2023/03/27 08:39:11;;;;;;;5.03;2.57;;;8.30;99.90;;;;;;5003589;28;20438;-90
2023/03/27 08:42:02;;;;;;;4.90;2.67;;;8.30;99.90;;;;;;5014764;28;20550;-90
2023/03/27 08:44:34;;;;;;;4.97;2.53;;;8.30;99.90;;;;;;5007858;28;20921;-92
2023/03/27 08:47:30;;;;;;;4.70;2.83;;;8.30;99.90;;;;;;4995717;28;20456;-91
2023/03/27 08:50:10;;;;;;;6.73;2.60;;;8.30;99.90;;;;;;4994722;28;20828;-86
2023/03/27 08:52:46;;;;;;;5.90;2.87;;;8.30;99.90;;;;;;4980117;28;20436;-88
2023/03/27 08:55:40;;;;;;;5.77;2.37;;;8.20;99.90;;;;;;4995531;28;20538;-89
2023/03/27 08:58:36;;;;;;;4.30;2.50;;;8.20;99.90;;;;;;4994811;28;20458;-88
2023/03/27 09:01:24;;;;;;;4.40;2.20;;;8.20;99.90;;;;;;4980805;28;20468;-88
2023/03/27 09:04:30;;;;;;;7.80;2.43;;;8.20;99.90;;;;;;4979394;28;20429;-89
2023/03/27 09:07:00;;;;;;;3.97;2.30;;;8.20;99.90;;;;;;4994506;28;20468;-87
2023/03/27 09:09:34;;;;;;;4.37;2.80;;;8.30;99.90;;;;;;4979237;28;20457;-85
2023/03/27 09:12:28;;;;;;;6.67;2.90;;;8.30;99.90;;;;;;4995726;28;20455;-87
2023/03/27 09:15:08;;;;;;;5.90;2.37;;;8.30;99.90;;;;;;4979014;28;20461;-87
2023/03/27 09:17:46;;;;;;;6.37;2.97;;;8.30;99.90;;;;;;5010674;28;20440;-88
2023/03/27 09:20:20;;;;;;;2.57;2.30;;;8.30;99.90;;;;;;4979137;28;20503;-90
2023/03/27 09:23:00;;;;;;;7.17;2.07;;;8.30;99.90;;;;;;5010924;28;20466;-88
2023/03/27 09:25:52;;;;;;;7.17;2.73;;;8.30;99.90;;;;;;4995274;28;20937;-89
2023/03/27 09:29:18;;;;;;;4.17;2.60;;;8.30;99.90;;;;;;4995314;28;20503;-88
2023/03/27 09:31:48;;;;;;;2.50;1.97;;;8.30;99.90;;;;;;4992664;28;20448;-88
2023/03/27 09:34:25;;;;;;;4.27;2.20;;;8.30;99.90;;;;;;4978559;28;20453;-89
2023/03/27 09:36:53;;;;;;;5.17;2.13;;;8.30;99.90;;;;;;4995065;28;20420;-92
2023/03/27 09:39:26;;;;;;;5.57;2.07;;;8.30;99.90;;;;;;4992062;28;20768;-89
2023/03/27 09:42:09;;;;;;;6.63;2.17;;;8.30;99.90;;;;;;4991135;28;20944;-87
2023/03/27 09:44:41;;;;;;;3.50;2.07;;;8.30;99.90;;;;;;4995166;28;20430;-88
2023/03/27 09:47:33;;;;;;;5.37;2.10;;;8.30;99.90;;;;;;4991847;28;20434;-91
2023/03/27 09:50:18;;;;;;;4.53;2.00;;;8.30;99.90;;;;;;4966454;28;20763;-90
2023/03/27 09:53:10;;;;;;;6.23;2.60;;;8.30;99.90;;;;;;4992023;28;20457;-88
2023/03/27 09:55:59;;;;;;;5.17;2.03;;;8.40;99.90;;;;;;5014682;28;20515;-87
2023/03/27 09:58:33;;;;;;;5.40;2.00;;;8.40;99.90;;;;;;5014001;28;20510;-90
2023/03/27 10:01:28;;;;;;;4.10;1.93;;;8.40;99.90;;;;;;4998459;28;20472;-86
2023/03/27 10:04:00;;;;;;;3.90;2.20;;;8.40;99.90;;;;;;4997900;28;20921;-89
2023/03/27 10:06:41;;;;;;;4.90;2.00;;;8.40;99.90;;;;;;4996699;28;20468;-88
2023/03/27 10:09:31;;;;;;;5.47;1.80;;;8.40;99.90;;;;;;5014051;28;20761;-89
2023/03/27 10:12:18;;;;;;;3.20;1.70;;;8.40;99.90;;;;;;4998463;28;20757;-88
2023/03/27 10:14:50;;;;;;;4.53;2.20;;;8.50;99.90;;;;;;4981647;28;20468;-88
2023/03/27 10:17:39;;;;;;;4.07;1.97;;;8.50;99.90;;;;;;4983603;28;20444;-90
2023/03/27 10:20:16;;;;;;;6.20;2.00;;;8.50;99.90;;;;;;4999111;28;20421;-92
2023/03/27 10:23:06;;;;;;;6.40;2.13;;;8.60;99.90;;;;;;4992136;28;20435;-87
2023/03/27 10:25:37;;;;;;;9.57;1.80;;;8.50;99.90;;;;;;5013984;28;20732;-89
2023/03/27 10:28:34;;;;;;;4.00;2.27;;;8.60;99.90;;;;;;4997185;28;20803;-88
2023/03/27 10:31:30;;;;;;;6.40;1.97;;;8.60;99.90;;;;;;4997625;28;20425;-87
2023/03/27 10:34:07;;;;;;;5.80;2.63;;;8.60;99.90;;;;;;4995963;28;20809;-87
2023/03/27 10:37:25;;;;;;;3.67;1.83;;;8.60;99.90;;;;;;4987610;28;20425;-88
2023/03/27 10:40:06;;;;;;;4.47;1.93;;;8.60;99.90;;;;;;4980663;28;20446;-87
2023/03/27 10:43:03;;;;;;;5.43;2.00;;;8.60;99.90;;;;;;4984583;28;20438;-87
2023/03/27 10:45:31;;;;;;;5.37;1.93;;;8.60;99.90;;;;;;4996557;28;20433;-86
2023/03/27 10:48:00;;;;;;;5.80;1.97;;;8.60;99.90;;;;;;4996509;28;20483;-86
2023/03/27 10:50:44;;;;;;;5.50;2.00;;;8.60;99.90;;;;;;4978329;28;20717;-87
2023/03/27 10:53:22;;;;;;;5.33;2.27;;;8.60;99.90;;;;;;4997080;28;20804;-87
2023/03/27 10:56:26;;;;;;;3.00;1.63;;;8.60;99.90;;;;;;4982253;28;20433;-86
2023/03/27 10:59:03;;;;;;;4.97;1.80;;;8.60;99.90;;;;;;4973483;28;20464;-87
2023/03/27 11:01:45;;;;;;;3.97;2.27;;;8.70;99.90;;;;;;4980338;28;20840;-87
2023/03/27 11:04:20;;;;;;;2.70;1.87;;;8.70;99.90;;;;;;4969126;28;20444;-86
2023/03/27 11:06:56;;;;;;;2.47;1.23;;;8.70;99.90;;;;;;4977517;28;20743;-87
2023/03/27 11:09:31;;;;;;;5.40;1.60;;;8.70;99.90;;;;;;4994112;28;20787;-86
2023/03/27 11:12:13;;;;;;;4.40;1.90;;;8.70;99.90;;;;;;4993114;28;20450;-85
2023/03/27 11:15:08;;;;;;;3.90;1.80;;;8.70;99.90;;;;;;4977820;28;20441;-85
2023/03/27 11:18:02;;;;;;;6.27;1.90;;;8.80;99.90;;;;;;4996258;28;20429;-87
2023/03/27 11:20:50;;;;;;;3.43;1.80;;;8.80;99.90;;;;;;4996299;28;20424;-87
2023/03/27 11:23:44;;;;;;;3.50;1.60;;;8.80;99.90;;;;;;5012743;28;20477;-86
2023/03/27 11:26:49;;;;;;;3.60;1.80;;;8.80;99.90;;;;;;4999682;28;20441;-86
2023/03/27 11:29:29;;;;;;;1.63;1.50;;;8.80;99.90;;;;;;4995803;28;20567;-86
2023/03/27 11:32:05;;;;;;;4.13;1.70;;;8.80;99.90;;;;;;4996067;28;20436;-85
2023/03/27 11:34:46;;;;;;;2.70;1.30;;;8.80;99.90;;;;;;5012670;28;20402;-86
2023/03/27 11:38:11;;;;;;;2.13;1.20;;;8.80;99.90;;;;;;4992560;28;20437;-87
2023/03/27 11:40:48;;;;;;;1.63;1.33;;;8.80;99.90;;;;;;4989790;28;20519;-88
2023/03/27 11:43:21;;;;;;;1.67;1.47;;;8.80;99.90;;;;;;5012381;28;20535;-88
2023/03/27 11:45:55;;;;;;;3.00;1.53;;;8.80;99.90;;;;;;4980167;28;20429;-88
2023/03/27 11:48:28;;;;;;;2.83;1.27;;;8.80;99.90;;;;;;4992753;28;20449;-89
2023/03/27 11:51:19;;;;;;;1.60;0.90;;;8.80;99.90;;;;;;4998416;28;20857;-89
2023/03/27 11:54:10;;;;;;;2.60;1.20;;;8.90;99.90;;;;;;4997182;28;20820;-87
2023/03/27 11:57:05;;;;;;;1.17;1.07;;;8.90;99.90;;;;;;4993877;28;20523;-85
2023/03/27 12:00:10;;;;;;;2.47;1.20;;;8.90;99.90;;;;;;4996057;28;20405;-85
2023/03/27 12:02:53;;;;;;;1.87;1.33;;;8.90;99.90;;;;;;4990367;28;20440;-85
2023/03/27 12:05:26;;;;;;;2.90;1.40;;;8.90;99.90;;;;;;4976643;28;20852;-85
2023/03/27 12:08:18;;;;;;;3.73;1.47;;;8.90;99.90;;;;;;4977608;28;20492;-85
2023/03/27 12:10:53;;;;;;;3.03;1.40;;;9.00;99.90;;;;;;4995490;28;20454;-83
2023/03/27 12:13:58;;;;;;;3.40;1.50;;;9.00;99.90;;;;;;4995728;28;20436;-84
2023/03/27 12:16:52;;;;;;;1.53;1.17;;;9.10;99.90;;;;;;4978100;28;20434;-86
2023/03/27 12:19:42;;;;;;;2.00;1.20;;;9.10;99.90;;;;;;4976457;28;20442;-86
2023/03/27 12:22:47;;;;;;;2.70;1.40;;;9.10;99.90;;;;;;5010418;28;20452;-86
2023/03/27 12:26:03;;;;;;;1.27;1.17;;;9.10;99.90;;;;;;4981590;28;20454;-86
2023/03/27 12:29:13;;;;;;;1.03;1.03;;;9.10;99.90;;;;;;4994795;28;20448;-85
2023/03/27 12:32:13;;;;;;;3.20;1.20;;;9.10;99.90;;;;;;5011080;28;20445;-84
2023/03/27 12:34:49;;;;;;;1.60;1.10;;;9.10;99.90;;;;;;4994803;28;20512;-85
2023/03/27 12:37:18;;;;;;;3.90;1.40;;;9.10;99.90;;;;;;5011708;28;20436;-86
2023/03/27 12:39:49;;;;;;;1.50;0.97;;;9.10;99.90;;;;;;4978823;28;20731;-84
2023/03/27 12:42:41;;;;;;;1.93;1.10;;;9.10;99.90;;;;;;4995186;28;20496;-86
2023/03/27 12:45:14;;;;;;;1.93;1.30;;;9.10;99.90;;;;;;4991672;28;20430;-87
2023/03/27 12:48:02;;;;;;;1.60;1.10;;;9.10;99.90;;;;;;4984345;28;20465;-83
2023/03/27 12:50:40;;;;;;;2.60;1.80;;;9.10;99.90;;;;;;4995086;28;20453;-83
2023/03/27 12:53:37;;;;;;;4.17;2.30;;;9.10;99.90;;;;;;4994480;28;20441;-86
2023/03/27 12:56:21;;;;;;;3.90;2.10;;;9.10;99.90;;;;;;4975294;28;20470;-87
2023/03/27 12:58:57;;;;;;;4.00;2.07;;;9.10;99.90;;;;;;4981503;28;20413;-85
2023/03/27 13:01:43;;;;;;;4.57;2.33;;;9.20;99.90;;;;;;5011064;28;20440;-88
2023/03/27 13:04:33;;;;;;;3.80;2.07;;;9.20;99.90;;;;;;5011380;28;20397;-84
2023/03/27 13:07:13;;;;;;;4.77;2.10;;;9.20;99.90;;;;;;5010971;28;20960;-86
2023/03/27 13:10:20;;;;;;;3.47;2.00;;;9.20;99.50;;;;;;4995068;28;20449;-85
2023/03/27 13:13:12;;;;;;;2.20;1.90;;;9.30;99.30;;;;;;4979415;28;20454;-85
2023/03/27 13:16:24;;;;;;;3.53;1.93;;;9.30;99.30;;;;;;4976133;28;20410;-86
2023/03/27 13:19:29;;;;;;;2.10;1.33;;;9.30;99.20;;;;;;4975562;28;20763;-86
2023/03/27 13:22:19;;;;;;;5.33;1.70;;;9.30;98.60;;;;;;4987785;28;20462;-88
2023/03/27 13:25:06;;;;;;;2.60;1.40;;;9.30;98.60;;;;;;4989883;28;20426;-86
2023/03/27 13:27:40;;;;;;;5.20;1.70;;;9.40;99.00;;;;;;5011550;28;20531;-84
2023/03/27 13:30:39;;;;;;;4.23;1.90;;;9.40;99.10;;;;;;5014576;28;20520;-86
2023/03/27 13:33:24;;;;;;;4.43;1.90;;;9.40;99.20;;;;;;4982078;28;20458;-87
2023/03/27 13:36:00;;;;;;;4.40;1.90;;;9.40;99.20;;;;;;5013311;28;20748;-86
2023/03/27 13:38:53;;;;;;;6.97;2.60;;;9.40;99.30;;;;;;4998529;28;20531;-85
2023/03/27 13:41:50;;;;;;;6.87;2.33;;;9.50;99.50;;;;;;4998325;28;20961;-84
2023/03/27 13:44:40;;;;;;;5.00;1.87;;;9.40;99.50;;;;;;5014050;28;20441;-87
2023/03/27 13:47:11;;;;;;;8.00;2.00;;;9.40;99.50;;;;;;4999210;28;20497;-86
2023/03/27 13:49:56;;;;;;;5.27;1.53;;;9.40;99.50;;;;;;4981821;28;20504;-88
2023/03/27 13:52:52;;;;;;;4.33;1.80;;;9.40;99.50;;;;;;4982523;28;20543;-88
2023/03/27 13:56:00;;;;;;;6.40;1.80;;;9.40;99.40;;;;;;4981702;28;20434;-86